Aeroporto :
LOGIN :

Iscrizione | Disclaimer

   EN    FR    IT 

 










Sommario :    VFR   VFR Marginale   IFR   IFR Intensivo   IFR Molto Intensivo
Visibilità : 
Base nubi : 
>= 8 km
>= 3000ft
5 / 8 km
1000 / 3000 ft
1500m / 5 km
500 / 1000 ft
800 / 1500m
200 / 500 ft
< 800m
< 200 ft
Simboli :   Temporali  Nebbia  Neve Forte  Precipitazioni Forti  Vento > 20 kt
SIGMETs :   Varie  Temporali  Ghiacco  Turbolenza  Onda orograficha  Ceneri Vulcaniche






- Altitudine del aeroporto : 348 ft
- Codice IATA : STN


EGSS - London Stansted

ULTIMO METAR :
  • 090120Z AUTO 23009KT 9999 -RA SCT014 BKN018 OVC026 06/05 Q0990

METARs OBSOLETI :
  • 090050Z AUTO 23007KT 9999 -RA BKN020/// OVC049/// //////TCU 06/04 Q0990
  • 090020Z AUTO 22008KT 9999 OVC023 06/04 Q0990
  • 082350Z AUTO 21011KT 9999 -RA SCT030 05/03 Q0991
  • 082320Z AUTO 22014KT 9999 NCD 05/02 Q0991
  • 082250Z AUTO 22017KT 9999 NCD 05/02 Q0992

TAF TAF EGSS
Valido dal 09 a 00 ore il 10 a 06 ore UTC


082258Z 0900/1006 23015KT 9999 FEW025
TEMPO 0900/0906 4500 SHRA
PROB30
TEMPO 0900/0906 BKN010
BECMG 0903/0906 31012KT
BECMG 0906/0909 32018G28KT
PROB30
TEMPO 0906/0912 6000 SHRA
BECMG 0912/0915 31012KT
BECMG 0918/0921 25006KT
ATIS : +44 1279 669 325



MetMap, La meteo Aeronautica in un colpo d'occhio ! - Copyright ORBIFLY Dicembre 2007 - Disclaimer

ORBIFLY MET'MAP TEAM :

Programmazione e sviluppo : Alexandra Zaïnal
Concezione : Baudouin d'Aumeries
Aiuto per la programmazione : Marc-Olivier Méhu
Supporto tecnico e logistico : Manuel Goepfert
Aiuto per la traduzione : Arnaldo La Scala

Contatto : metmap@orbifly.com




FONTI E CREDITI :

   NOAA